Vindicator — WDG5113 — position and weather

sailwx.info

Track history (hours):
 
Tides and Currents Weather Stations Pressure Air Temp Water Temp Dewpoint Dewpoint Depression Visibility Wind Speed Wind Dir Waves Ship Positions

Vindicator

Owner: Graham, Dennis R, Seattle, WA. More information available from US FCC via Universal Licensing System and Coast Guard Vessel Documentation Center.

Last reported at 2018-Jun-04 18:55 UTC. Time now 2018-Jun-23 21:48 UTC.
Position N 47°17' W 122°25'.
Warning: this ship's position is 19 days out of date.

Length 24 m.

Type: Pleasure craft. MMSI: 367543450.

Date/timePositionNaut miles runAvg speedWind from/ knotsBaromVisibWave heightAir tempDewpointWater temp
2018-Jun-04 18:55N 47°17' W 122°25'3 7.2
2018-Jun-04 18:30N 47°20' W 122°25'5 9.6
2018-Jun-04 18:00N 47°25' W 122°23'511.0
2018-Jun-04 17:30N 47°30' W 122°27'510.7
2018-Jun-04 17:00N 47°35' W 122°28'510.9
2018-Jun-04 16:30N 47°41' W 122°29'  
2018-May-30 20:54N 47°43' W 122°32'7 0.3
2018-May-29 22:50N 47°36' W 122°35'3 8.9
2018-May-29 22:30N 47°34' W 122°32'4 8.9
2018-May-29 22:00N 47°30' W 122°30'5 9.8
2018-May-29 21:29N 47°25' W 122°32'5 9.6
2018-May-29 20:58N 47°20' W 122°34'1 0.0
2018-May-28 22:05N 47°20' W 122°34'1 7.3
2018-May-28 22:00N 47°19' W 122°34'5 8.8
2018-May-28 21:28N 47°18' W 122°27'  
Track history (hours):
 
Tides and Currents Weather Stations Pressure Air Temp Water Temp Dewpoint Dewpoint Depression Visibility Wind Speed Wind Dir Waves Ship Positions

Vindicator

Owner: Graham, Dennis R, Seattle, WA. More information available from US FCC via Universal Licensing System and Coast Guard Vessel Documentation Center.

Last reported at 2018-Jun-04 18:55 UTC. Time now 2018-Jun-23 21:48 UTC.
Position N 47°17' W 122°25'.
Warning: this ship's position is 19 days out of date.

Length 24 m.

Type: Pleasure craft. MMSI: 367543450.

Date/timePositionNaut miles runAvg speedWind from/ knotsBaromVisibWave heightAir tempDewpointWater temp
2018-Jun-04 18:55N 47°17' W 122°25'3 7.2
2018-Jun-04 18:30N 47°20' W 122°25'5 9.6
2018-Jun-04 18:00N 47°25' W 122°23'511.0
2018-Jun-04 17:30N 47°30' W 122°27'510.7
2018-Jun-04 17:00N 47°35' W 122°28'510.9
2018-Jun-04 16:30N 47°41' W 122°29'  
2018-May-30 20:54N 47°43' W 122°32'7 0.3
2018-May-29 22:50N 47°36' W 122°35'3 8.9
2018-May-29 22:30N 47°34' W 122°32'4 8.9
2018-May-29 22:00N 47°30' W 122°30'5 9.8
2018-May-29 21:29N 47°25' W 122°32'5 9.6
2018-May-29 20:58N 47°20' W 122°34'1 0.0
2018-May-28 22:05N 47°20' W 122°34'1 7.3
2018-May-28 22:00N 47°19' W 122°34'5 8.8
2018-May-28 21:28N 47°18' W 122°27'  

Dump ship's entire track history